Time;durP1;ratioP1;P1;durP2;ratioP2;P2;SDS_P1;SDS_P2;PMS_P1;PMS_P2;Temp;Humidity;BMP_temperature;BMP_pressure;BME280_temperature;BME280_humidity;BME280_pressure;Samples;Min_cycle;Max_cycle;Signal;HPM_P1;HPM_P2
2023/06/10 00:00:41;;;;;;;5.05;4.43;;;23.00;71.90;;;;;;5052242;28;20028;-84
2023/06/10 00:03:10;;;;;;;5.72;4.53;;;23.00;72.10;;;;;;5052239;28;20074;-84
2023/06/10 00:05:38;;;;;;;4.72;4.32;;;22.90;72.30;;;;;;5052135;28;20473;-84
2023/06/10 00:08:07;;;;;;;5.18;4.68;;;22.90;72.30;;;;;;5052265;28;20029;-85
2023/06/10 00:10:36;;;;;;;5.80;4.53;;;22.90;72.50;;;;;;5051620;28;20094;-84
2023/06/10 00:13:03;;;;;;;7.10;4.88;;;22.80;72.60;;;;;;5053466;28;20059;-84
2023/06/10 00:15:29;;;;;;;4.80;4.30;;;22.80;72.80;;;;;;5052265;28;20025;-84
2023/06/10 00:17:55;;;;;;;7.05;5.13;;;22.80;72.90;;;;;;5034104;28;20041;-84
2023/06/10 00:20:24;;;;;;;5.20;4.70;;;22.80;73.00;;;;;;5051998;28;20025;-84
2023/06/10 00:22:51;;;;;;;5.57;5.00;;;22.80;73.10;;;;;;5052005;28;20104;-85
2023/06/10 00:25:17;;;;;;;6.70;5.00;;;22.70;73.30;;;;;;5053101;28;20036;-84
2023/06/10 00:27:42;;;;;;;6.20;4.80;;;22.70;73.40;;;;;;5035409;28;20029;-85
2023/06/10 00:30:09;;;;;;;6.53;4.93;;;22.70;73.40;;;;;;5051432;28;20068;-84
2023/06/10 00:32:36;;;;;;;5.50;4.63;;;22.70;73.50;;;;;;5034811;28;20081;-84
2023/06/10 00:35:03;;;;;;;5.22;4.72;;;22.60;73.60;;;;;;5052176;28;20132;-84
2023/06/10 00:37:29;;;;;;;6.13;4.90;;;22.50;73.60;;;;;;5051846;28;20029;-85
2023/06/10 00:39:55;;;;;;;7.15;4.97;;;22.50;73.60;;;;;;5051862;28;20492;-84
2023/06/10 00:42:22;;;;;;;6.35;5.13;;;22.50;73.70;;;;;;5052027;28;20025;-85
2023/06/10 00:44:48;;;;;;;6.60;4.18;;;22.40;73.60;;;;;;5035581;28;20436;-84
2023/06/10 00:47:14;;;;;;;5.78;5.18;;;22.40;73.60;;;;;;5051915;28;20025;-85
2023/06/10 00:49:40;;;;;;;6.53;5.10;;;22.40;73.70;;;;;;5052087;28;20033;-85
2023/06/10 00:52:08;;;;;;;4.80;4.38;;;22.40;73.60;;;;;;5035329;28;20093;-85
2023/06/10 00:54:34;;;;;;;7.85;4.97;;;22.40;73.70;;;;;;5052139;28;20373;-85
2023/06/10 00:57:01;;;;;;;6.65;4.70;;;22.30;73.60;;;;;;5053441;28;20040;-84
2023/06/10 00:59:29;;;;;;;6.30;4.75;;;22.30;73.60;;;;;;5052175;28;20040;-85
2023/06/10 01:01:55;;;;;;;5.28;4.78;;;22.30;73.60;;;;;;5054689;28;20025;-85
2023/06/10 01:04:22;;;;;;;5.65;5.00;;;22.20;73.50;;;;;;5039662;28;20036;-85
2023/06/10 01:07:10;;;;;;;4.93;4.45;;;22.20;74.10;;;;;;5049402;28;20012;-85
2023/06/10 01:09:49;;;;;;;5.40;4.90;;;22.20;73.50;;;;;;5080560;28;20021;-85
2023/06/10 01:12:26;;;;;;;5.00;4.50;;;22.20;73.50;;;;;;5081204;28;20005;-84
2023/06/10 01:14:52;;;;;;;5.38;4.88;;;22.10;73.50;;;;;;5080122;28;20057;-85
2023/06/10 01:17:18;;;;;;;5.20;4.70;;;22.10;73.40;;;;;;5063896;28;20033;-85
2023/06/10 01:19:52;;;;;;;5.30;4.63;;;22.10;73.30;;;;;;5062242;28;20400;-85
2023/06/10 01:22:18;;;;;;;6.68;4.78;;;22.00;73.30;;;;;;5040585;28;20492;-86
2023/06/10 01:24:44;;;;;;;6.47;4.57;;;22.00;73.20;;;;;;5055352;28;20021;-86
2023/06/10 01:27:14;;;;;;;5.40;4.53;;;22.00;73.20;;;;;;5039200;28;20025;-85
2023/06/10 01:29:45;;;;;;;5.65;4.85;;;22.00;73.20;;;;;;5054756;28;20021;-84
2023/06/10 01:32:18;;;;;;;5.18;4.25;;;21.90;73.20;;;;;;5054813;28;20053;-86
2023/06/10 01:34:44;;;;;;;4.80;4.28;;;21.90;73.20;;;;;;5056478;28;20083;-85
2023/06/10 01:37:15;;;;;;;4.65;4.07;;;21.90;73.20;;;;;;5038383;28;20037;-85
2023/06/10 01:39:42;;;;;;;5.35;4.43;;;21.90;73.10;;;;;;5056479;28;20032;-85
2023/06/10 01:42:10;;;;;;;6.30;4.70;;;21.80;73.00;;;;;;5054922;28;20032;-85
2023/06/10 01:44:35;;;;;;;7.30;4.97;;;21.80;73.00;;;;;;5055056;28;20067;-85
2023/06/10 01:47:01;;;;;;;5.32;4.28;;;21.70;72.90;;;;;;5054694;28;20028;-85
2023/06/10 01:49:29;;;;;;;5.55;4.18;;;21.70;73.00;;;;;;5038395;28;20064;-85
2023/06/10 01:51:55;;;;;;;7.38;4.30;;;21.70;73.00;;;;;;5038035;28;20021;-85
2023/06/10 01:54:21;;;;;;;5.28;4.75;;;21.70;72.90;;;;;;5054785;28;20029;-85
2023/06/10 01:56:46;;;;;;;6.93;4.80;;;21.60;72.90;;;;;;5038209;28;20017;-85
2023/06/10 01:59:12;;;;;;;6.47;4.32;;;21.60;72.90;;;;;;5037816;28;20439;-85
2023/06/10 02:01:38;;;;;;;6.35;4.28;;;21.60;72.90;;;;;;5054804;28;20457;-85
2023/06/10 02:04:04;;;;;;;5.00;4.30;;;21.50;72.90;;;;;;5037805;28;20397;-85
2023/06/10 02:06:30;;;;;;;5.07;4.57;;;21.50;72.80;;;;;;5054519;28;20025;-85
2023/06/10 02:08:55;;;;;;;5.82;4.50;;;21.50;72.90;;;;;;5054079;28;20473;-85
2023/06/10 02:11:21;;;;;;;5.60;4.20;;;21.50;72.90;;;;;;5054039;28;20147;-85
2023/06/10 02:13:47;;;;;;;5.53;4.32;;;21.40;72.80;;;;;;5037458;28;20025;-84
2023/06/10 02:16:13;;;;;;;5.20;4.10;;;21.40;72.90;;;;;;5037822;28;20029;-85
2023/06/10 02:18:42;;;;;;;7.63;4.70;;;21.30;72.90;;;;;;5037589;28;20032;-84
2023/06/10 02:21:08;;;;;;;5.63;4.15;;;21.30;73.00;;;;;;5053975;28;20025;-85
2023/06/10 02:23:34;;;;;;;7.40;4.45;;;21.20;73.10;;;;;;5053914;28;20052;-85
2023/06/10 02:26:00;;;;;;;5.13;4.63;;;21.20;73.10;;;;;;5053747;28;20385;-84
2023/06/10 02:28:26;;;;;;;7.30;4.80;;;21.20;73.30;;;;;;5054241;28;20029;-85
2023/06/10 02:30:52;;;;;;;5.00;4.43;;;21.10;73.30;;;;;;5037355;28;20079;-85
2023/06/10 02:33:18;;;;;;;5.22;4.32;;;21.10;73.30;;;;;;5037199;28;20076;-85
2023/06/10 02:35:44;;;;;;;5.47;4.22;;;21.10;73.40;;;;;;5036988;28;20559;-84
2023/06/10 02:38:09;;;;;;;6.65;4.53;;;21.10;73.50;;;;;;5053748;28;20029;-85
2023/06/10 02:40:35;;;;;;;5.00;4.50;;;21.10;73.60;;;;;;5053892;28;20033;-85
2023/06/10 02:43:01;;;;;;;5.38;4.70;;;21.00;73.70;;;;;;5037135;28;20025;-84
2023/06/10 02:45:26;;;;;;;5.38;4.45;;;21.00;73.80;;;;;;5037067;28;20029;-85
2023/06/10 02:47:52;;;;;;;5.07;4.22;;;21.00;73.90;;;;;;5053737;28;20108;-85
2023/06/10 02:50:18;;;;;;;4.63;4.05;;;21.00;74.00;;;;;;5053691;28;20064;-85
2023/06/10 02:52:44;;;;;;;5.32;4.57;;;21.00;74.20;;;;;;5053458;28;20477;-85
2023/06/10 02:55:10;;;;;;;6.60;4.43;;;21.00;74.30;;;;;;5053644;28;20082;-84
2023/06/10 02:57:36;;;;;;;6.28;4.68;;;21.00;74.50;;;;;;5037157;28;20025;-85
2023/06/10 03:00:04;;;;;;;6.55;4.78;;;21.00;74.60;;;;;;5037097;28;20037;-85
2023/06/10 03:02:31;;;;;;;5.53;4.32;;;20.90;74.70;;;;;;5056060;28;20046;-85
2023/06/10 03:04:57;;;;;;;5.88;4.45;;;20.90;74.90;;;;;;5074583;28;20029;-84
2023/06/10 03:07:23;;;;;;;6.28;4.47;;;20.90;75.00;;;;;;5078205;28;20025;-84
2023/06/10 03:09:52;;;;;;;6.40;4.72;;;20.80;75.10;;;;;;5061824;28;20032;-84
2023/06/10 03:12:18;;;;;;;5.72;4.72;;;20.80;75.30;;;;;;5078511;28;20016;-84
2023/06/10 03:14:43;;;;;;;5.68;4.47;;;20.70;75.40;;;;;;5076763;28;20108;-82
2023/06/10 03:17:09;;;;;;;6.82;4.60;;;20.70;76.20;;;;;;5060118;28;20033;-85
2023/06/10 03:19:37;;;;;;;6.22;4.18;;;20.70;75.60;;;;;;5053832;28;20028;-84
2023/06/10 03:22:14;;;;;;;5.95;4.25;;;20.70;75.80;;;;;;5052992;28;20056;-84
2023/06/10 03:24:40;;;;;;;6.03;4.97;;;20.70;75.90;;;;;;5053538;28;20030;-84
2023/06/10 03:27:16;;;;;;;7.18;5.05;;;20.60;76.20;;;;;;5054193;28;20108;-84
2023/06/10 03:29:42;;;;;;;7.78;4.90;;;20.60;76.50;;;;;;5052894;28;20029;-84
2023/06/10 03:32:08;;;;;;;6.45;4.78;;;20.50;76.50;;;;;;5053743;28;20387;-84
2023/06/10 03:34:33;;;;;;;4.90;4.25;;;20.60;76.60;;;;;;5035965;28;20063;-84
2023/06/10 03:37:02;;;;;;;4.90;4.40;;;20.50;76.60;;;;;;5052665;28;20109;-84
2023/06/10 03:39:31;;;;;;;7.20;4.80;;;20.50;76.80;;;;;;5036676;28;20032;-85
2023/06/10 03:41:57;;;;;;;5.35;4.38;;;20.50;76.90;;;;;;5052585;28;20021;-84
2023/06/10 03:44:24;;;;;;;5.38;4.15;;;20.50;77.60;;;;;;5053969;28;20032;-84
2023/06/10 03:46:50;;;;;;;5.32;4.47;;;20.50;77.20;;;;;;5052427;28;20017;-85
2023/06/10 03:49:16;;;;;;;6.03;4.50;;;20.40;77.20;;;;;;5035541;28;20044;-84
2023/06/10 03:51:41;;;;;;;6.93;4.68;;;20.40;77.40;;;;;;5052793;28;20025;-84
2023/06/10 03:54:07;;;;;;;7.68;4.68;;;20.40;77.50;;;;;;5035766;28;20033;-85
2023/06/10 03:56:32;;;;;;;5.65;4.72;;;20.40;77.70;;;;;;5053588;28;20040;-84
2023/06/10 03:58:58;;;;;;;5.88;4.50;;;20.40;77.80;;;;;;5052394;28;20539;-84
2023/06/10 04:01:24;;;;;;;8.48;4.82;;;20.30;77.90;;;;;;5052345;28;20056;-84
2023/06/10 04:03:51;;;;;;;7.60;5.30;;;20.30;78.00;;;;;;5052679;28;20079;-83
2023/06/10 04:06:17;;;;;;;6.30;4.68;;;20.30;78.10;;;;;;5053564;28;20029;-84
2023/06/10 04:08:43;;;;;;;6.07;4.80;;;20.30;78.20;;;;;;5053819;28;20548;-84
2023/06/10 04:11:09;;;;;;;5.32;4.40;;;20.30;78.40;;;;;;5053443;28;20020;-84
2023/06/10 04:13:35;;;;;;;7.90;4.75;;;20.20;78.50;;;;;;5053691;28;20037;-84
2023/06/10 04:16:03;;;;;;;7.45;4.82;;;20.20;78.70;;;;;;5035654;28;20373;-84
2023/06/10 04:18:29;;;;;;;6.53;4.45;;;20.20;78.90;;;;;;5035317;28;20085;-84
2023/06/10 04:20:55;;;;;;;6.30;4.97;;;20.20;79.00;;;;;;5052111;28;20029;-85
2023/06/10 04:23:23;;;;;;;6.55;4.80;;;20.20;79.10;;;;;;5051932;28;20029;-85
2023/06/10 04:25:49;;;;;;;6.65;4.70;;;20.20;79.10;;;;;;5051927;28;20033;-84
2023/06/10 04:28:14;;;;;;;8.88;5.22;;;20.20;79.30;;;;;;5035536;28;20128;-84
2023/06/10 04:30:41;;;;;;;7.88;5.47;;;20.10;79.40;;;;;;5051833;28;20069;-84
2023/06/10 04:33:09;;;;;;;8.52;4.93;;;20.20;79.50;;;;;;5035194;28;20052;-84
2023/06/10 04:35:35;;;;;;;6.00;4.07;;;20.20;79.60;;;;;;5037271;28;20367;-84
2023/06/10 04:38:03;;;;;;;8.07;4.50;;;20.20;79.70;;;;;;5039207;28;20083;-84
2023/06/10 04:40:28;;;;;;;6.63;4.93;;;20.20;79.70;;;;;;5039717;28;20537;-84
2023/06/10 04:42:54;;;;;;;6.78;4.95;;;20.20;79.80;;;;;;5055920;28;20053;-85
2023/06/10 04:45:19;;;;;;;6.95;4.80;;;20.20;79.90;;;;;;5055873;28;20528;-84
2023/06/10 04:47:45;;;;;;;7.13;4.70;;;20.20;80.00;;;;;;5039130;28;20028;-84
2023/06/10 04:50:11;;;;;;;6.13;5.03;;;20.20;80.10;;;;;;5039211;28;20041;-84
2023/06/10 04:52:36;;;;;;;5.50;4.25;;;20.20;80.20;;;;;;5039631;28;20021;-84
2023/06/10 04:55:02;;;;;;;6.40;4.90;;;20.20;80.20;;;;;;5039296;28;20037;-83
2023/06/10 04:57:28;;;;;;;11.93;5.10;;;20.30;80.30;;;;;;5056060;28;20366;-85
2023/06/10 04:59:54;;;;;;;5.82;4.57;;;20.30;80.40;;;;;;5072616;28;20013;-84
2023/06/10 05:02:19;;;;;;;6.88;5.00;;;20.30;80.40;;;;;;5080223;28;20068;-84
2023/06/10 05:04:45;;;;;;;5.50;4.85;;;20.30;80.50;;;;;;5079394;28;20025;-85
2023/06/10 05:07:11;;;;;;;5.88;4.72;;;20.30;80.60;;;;;;5063944;28;20045;-84
2023/06/10 05:09:40;;;;;;;7.03;4.57;;;20.30;80.60;;;;;;5080714;28;20079;-84
2023/06/10 05:12:06;;;;;;;5.80;4.20;;;20.40;80.50;;;;;;5058920;28;20049;-84
2023/06/10 05:14:32;;;;;;;5.95;4.60;;;20.40;80.60;;;;;;5055957;28;20021;-85
2023/06/10 05:16:58;;;;;;;6.47;5.00;;;20.40;80.60;;;;;;5055615;28;20025;-85
2023/06/10 05:19:23;;;;;;;7.05;4.40;;;20.40;80.60;;;;;;5055635;28;20088;-85
2023/06/10 05:21:49;;;;;;;6.45;4.93;;;20.40;80.70;;;;;;5039033;28;20440;-85
2023/06/10 05:24:15;;;;;;;5.95;5.15;;;20.50;80.70;;;;;;5055360;28;20032;-84
2023/06/10 05:26:43;;;;;;;6.03;5.10;;;20.50;80.80;;;;;;5038710;28;20025;-84
2023/06/10 05:29:11;;;;;;;5.35;4.75;;;20.50;80.90;;;;;;5055024;28;20052;-84
2023/06/10 05:31:39;;;;;;;6.35;4.68;;;20.60;81.00;;;;;;5056489;28;20091;-85
2023/06/10 05:34:05;;;;;;;7.68;4.95;;;20.60;81.10;;;;;;5055344;28;20017;-84
2023/06/10 05:36:31;;;;;;;7.28;4.55;;;20.60;81.10;;;;;;5038264;28;20485;-84
2023/06/10 05:38:56;;;;;;;8.45;5.00;;;20.50;81.10;;;;;;5038158;28;20022;-84
2023/06/10 05:41:25;;;;;;;7.03;5.35;;;20.60;81.10;;;;;;5054681;28;20025;-84
2023/06/10 05:43:51;;;;;;;6.45;4.68;;;20.60;81.10;;;;;;5056087;28;20028;-84
2023/06/10 05:46:16;;;;;;;7.72;4.80;;;20.60;81.20;;;;;;5037951;28;20026;-84
2023/06/10 05:48:42;;;;;;;6.50;4.57;;;20.70;81.20;;;;;;5054371;28;20025;-84
2023/06/10 05:51:10;;;;;;;6.88;4.78;;;20.70;81.20;;;;;;5054883;28;20465;-84
2023/06/10 05:53:36;;;;;;;6.15;4.80;;;20.70;81.20;;;;;;5038222;28;20116;-84
2023/06/10 05:56:01;;;;;;;5.63;4.60;;;20.70;81.20;;;;;;5055944;28;20048;-84
2023/06/10 05:58:27;;;;;;;6.13;4.72;;;20.80;81.20;;;;;;5054742;28;20116;-84
2023/06/10 06:00:53;;;;;;;6.40;4.80;;;20.80;81.10;;;;;;5054718;28;20033;-84
2023/06/10 06:03:19;;;;;;;6.90;4.68;;;20.80;81.10;;;;;;5054405;28;20458;-83
2023/06/10 06:05:45;;;;;;;7.25;5.10;;;20.80;81.00;;;;;;5054911;28;20021;-84
2023/06/10 06:08:13;;;;;;;8.82;5.32;;;20.80;81.10;;;;;;5038208;28;20466;-84
2023/06/10 06:10:38;;;;;;;7.25;5.18;;;20.90;81.20;;;;;;5054645;28;20362;-84
2023/06/10 06:13:04;;;;;;;5.38;4.80;;;20.90;81.20;;;;;;5037665;28;20033;-83
2023/06/10 06:15:30;;;;;;;6.57;4.85;;;20.90;81.20;;;;;;5055509;28;20326;-84
2023/06/10 06:17:55;;;;;;;5.72;4.88;;;21.00;81.20;;;;;;5037801;28;20041;-85
2023/06/10 06:20:22;;;;;;;5.88;4.72;;;21.00;81.20;;;;;;5054935;28;20033;-85
2023/06/10 06:22:48;;;;;;;8.00;4.57;;;21.00;81.20;;;;;;5055699;28;20382;-85
2023/06/10 06:25:14;;;;;;;6.35;4.50;;;21.00;81.30;;;;;;5037424;28;20025;-84
2023/06/10 06:27:40;;;;;;;6.88;4.72;;;21.10;81.30;;;;;;5037904;28;20425;-84
2023/06/10 06:30:06;;;;;;;6.10;5.00;;;21.10;81.30;;;;;;5037602;28;20049;-84
2023/06/10 06:32:32;;;;;;;6.32;4.80;;;21.20;81.20;;;;;;5037229;28;20365;-85
2023/06/10 06:34:58;;;;;;;5.88;4.50;;;21.20;81.10;;;;;;5054220;28;20025;-88
2023/06/10 06:37:25;;;;;;;6.18;4.75;;;21.20;81.00;;;;;;5054842;28;20025;-87
2023/06/10 06:39:54;;;;;;;7.82;5.20;;;21.30;81.00;;;;;;5054461;28;20029;-87
2023/06/10 06:42:20;;;;;;;6.70;5.20;;;21.30;81.00;;;;;;5054317;28;20074;-87
2023/06/10 06:44:49;;;;;;;6.82;4.78;;;21.40;80.90;;;;;;5054680;28;20029;-87
2023/06/10 06:47:17;;;;;;;6.68;5.35;;;21.40;80.90;;;;;;5054031;28;20025;-86
2023/06/10 06:49:43;;;;;;;8.52;5.45;;;21.40;80.80;;;;;;5053977;28;20087;-87
2023/06/10 06:52:11;;;;;;;6.68;5.22;;;21.40;80.60;;;;;;5055366;28;20013;-86
2023/06/10 06:54:40;;;;;;;7.03;5.30;;;21.40;80.70;;;;;;5060890;28;20041;-87
2023/06/10 06:57:06;;;;;;;7.00;5.35;;;21.50;80.70;;;;;;5076735;28;20017;-86
2023/06/10 06:59:32;;;;;;;6.15;5.07;;;21.50;80.60;;;;;;5078186;28;20020;-86
2023/06/10 07:01:58;;;;;;;9.25;5.78;;;21.60;80.40;;;;;;5078608;28;20047;-86
2023/06/10 07:04:24;;;;;;;6.20;5.30;;;21.60;80.30;;;;;;5077322;28;20009;-86
2023/06/10 07:06:50;;;;;;;6.03;4.28;;;21.70;80.30;;;;;;5075426;28;20040;-87
2023/06/10 07:09:19;;;;;;;5.75;4.80;;;21.70;80.30;;;;;;5055269;28;20051;-88
2023/06/10 07:11:44;;;;;;;7.57;5.18;;;21.80;80.10;;;;;;5054584;28;20047;-87
2023/06/10 07:14:10;;;;;;;6.60;5.15;;;21.90;80.00;;;;;;5054984;28;20021;-87
2023/06/10 07:16:36;;;;;;;5.72;4.53;;;22.00;79.70;;;;;;5053144;28;20484;-87
2023/06/10 07:19:01;;;;;;;6.45;4.57;;;22.10;79.70;;;;;;5036789;28;20086;-87
2023/06/10 07:21:28;;;;;;;5.95;4.00;;;22.10;79.70;;;;;;5036362;28;20031;-87
2023/06/10 07:23:54;;;;;;;5.93;4.70;;;22.20;79.50;;;;;;5052988;28;20067;-87
2023/06/10 07:26:22;;;;;;;8.90;4.47;;;22.20;79.20;;;;;;5036496;28;20401;-87
2023/06/10 07:28:48;;;;;;;6.78;5.45;;;22.30;79.10;;;;;;5054422;28;20029;-87
2023/06/10 07:31:16;;;;;;;5.57;4.60;;;22.30;78.80;;;;;;5053403;28;20116;-87
2023/06/10 07:33:43;;;;;;;5.18;4.65;;;22.30;78.70;;;;;;5054193;28;20169;-84
2023/06/10 07:36:09;;;;;;;5.95;4.38;;;22.40;78.60;;;;;;5053025;28;20442;-84
2023/06/10 07:38:35;;;;;;;6.03;4.45;;;22.50;78.50;;;;;;5052356;28;20111;-86
2023/06/10 07:41:01;;;;;;;7.18;5.30;;;22.50;78.20;;;;;;5052488;28;20090;-86
2023/06/10 07:43:27;;;;;;;7.70;5.28;;;22.50;78.00;;;;;;5035847;28;20115;-85
2023/06/10 07:45:52;;;;;;;6.22;4.72;;;22.50;77.90;;;;;;5052568;28;20029;-86
2023/06/10 07:48:18;;;;;;;6.40;5.10;;;22.60;78.00;;;;;;5052759;28;20473;-87
2023/06/10 07:50:44;;;;;;;5.03;4.38;;;22.60;78.00;;;;;;5052408;28;20025;-86
2023/06/10 07:53:12;;;;;;;5.68;4.20;;;22.70;78.10;;;;;;5052591;28;20029;-86
2023/06/10 07:55:38;;;;;;;5.07;4.13;;;22.80;78.10;;;;;;5052788;28;20028;-87
2023/06/10 07:58:04;;;;;;;6.07;4.63;;;22.80;77.80;;;;;;5054401;28;20021;-86
2023/06/10 08:00:29;;;;;;;7.95;5.25;;;22.90;77.70;;;;;;5052428;28;20025;-87
2023/06/10 08:02:55;;;;;;;4.95;4.10;;;23.00;77.80;;;;;;5035898;28;20028;-87
2023/06/10 08:05:21;;;;;;;6.80;4.57;;;23.10;77.50;;;;;;5052816;28;20060;-87
2023/06/10 08:07:47;;;;;;;8.07;5.30;;;23.20;77.50;;;;;;5052354;28;20051;-87
2023/06/10 08:10:12;;;;;;;5.38;4.55;;;23.20;77.20;;;;;;5052083;28;20087;-87
2023/06/10 08:12:38;;;;;;;4.45;3.78;;;23.30;77.30;;;;;;5035945;28;20032;-86
2023/06/10 08:15:04;;;;;;;4.85;4.15;;;23.40;77.30;;;;;;5053709;28;20032;-87
2023/06/10 08:17:30;;;;;;;7.90;5.03;;;23.50;77.10;;;;;;5051999;28;20389;-86
2023/06/10 08:20:01;;;;;;;6.00;4.80;;;23.50;76.70;;;;;;5053925;28;20033;-86
2023/06/10 08:22:28;;;;;;;5.45;4.72;;;23.60;76.50;;;;;;5053037;28;20025;-86
2023/06/10 08:24:54;;;;;;;6.18;4.55;;;23.60;76.30;;;;;;5036000;28;20021;-87
2023/06/10 08:27:20;;;;;;;6.88;4.05;;;23.70;76.30;;;;;;5036473;28;20025;-86
2023/06/10 08:29:45;;;;;;;8.07;5.10;;;23.70;76.40;;;;;;5035049;28;20127;-87
2023/06/10 08:32:12;;;;;;;4.78;4.13;;;23.80;76.20;;;;;;5036079;28;20059;-87
2023/06/10 08:34:39;;;;;;;7.03;4.50;;;23.90;75.80;;;;;;5035558;28;20033;-86
2023/06/10 08:37:05;;;;;;;4.97;4.00;;;23.90;76.20;;;;;;5053546;28;20029;-87
2023/06/10 08:39:33;;;;;;;5.32;4.05;;;24.00;75.50;;;;;;5052459;28;20036;-87
2023/06/10 08:42:13;;;;;;;4.57;3.75;;;24.10;75.40;;;;;;5036247;28;20022;-87
2023/06/10 08:44:40;;;;;;;5.05;3.95;;;24.20;75.60;;;;;;5052340;28;20544;-87
2023/06/10 08:47:16;;;;;;;6.82;4.35;;;24.30;75.40;;;;;;5054567;28;20021;-87
2023/06/10 08:49:47;;;;;;;5.55;4.32;;;24.30;75.00;;;;;;5054229;28;20532;-87
2023/06/10 08:52:14;;;;;;;;;;;24.40;74.70;;;;;;5055353;28;20021;-87
2023/06/10 08:54:43;;;;;;;4.20;3.78;;;24.50;74.60;;;;;;5075451;28;19900;-86
2023/06/10 08:57:09;;;;;;;6.25;3.90;;;24.50;74.60;;;;;;5076824;28;20009;-87
2023/06/10 08:59:36;;;;;;;7.32;3.72;;;24.60;74.30;;;;;;5077486;28;20090;-86
2023/06/10 09:02:04;;;;;;;5.10;3.78;;;24.70;74.20;;;;;;5073027;28;20014;-87
2023/06/10 09:04:30;;;;;;;7.53;4.97;;;24.70;74.10;;;;;;5076544;28;20005;-85
2023/06/10 09:06:56;;;;;;;5.40;4.47;;;24.90;73.70;;;;;;5052746;28;20461;-87
2023/06/10 09:09:23;;;;;;;5.07;4.00;;;24.90;73.00;;;;;;5052751;28;20547;-87
2023/06/10 09:11:51;;;;;;;5.80;4.00;;;24.90;72.80;;;;;;5052031;28;20033;-88
2023/06/10 09:14:17;;;;;;;6.00;3.38;;;25.00;72.90;;;;;;5052968;28;20111;-87
2023/06/10 09:16:43;;;;;;;4.78;4.18;;;25.10;73.10;;;;;;5051985;28;20504;-88
2023/06/10 09:19:10;;;;;;;6.93;4.05;;;25.10;72.90;;;;;;5052655;28;20058;-87
2023/06/10 09:21:39;;;;;;;5.28;4.30;;;25.30;72.80;;;;;;5052058;28;20036;-87
2023/06/10 09:24:05;;;;;;;7.20;3.92;;;25.30;72.30;;;;;;5055715;28;20024;-87
2023/06/10 09:26:31;;;;;;;4.80;3.97;;;25.40;71.90;;;;;;5055629;28;20025;-87
2023/06/10 09:29:05;;;;;;;5.28;4.50;;;25.40;72.00;;;;;;5038636;28;20481;-87
2023/06/10 09:31:40;;;;;;;4.90;4.07;;;25.50;71.90;;;;;;5055496;28;20387;-87
2023/06/10 09:34:13;;;;;;;5.20;3.97;;;25.50;71.90;;;;;;5056047;28;20029;-87
2023/06/10 09:36:43;;;;;;;5.68;4.55;;;25.60;71.50;;;;;;5055357;28;20032;-88
2023/06/10 09:39:16;;;;;;;6.80;4.18;;;25.70;70.60;;;;;;5055553;28;20495;-87
2023/06/10 09:41:43;;;;;;;4.57;3.80;;;25.80;70.80;;;;;;5055590;28;20079;-87
2023/06/10 09:44:17;;;;;;;6.72;4.32;;;25.80;70.60;;;;;;5039362;28;20033;-87
2023/06/10 09:46:48;;;;;;;5.05;3.50;;;25.90;70.80;;;;;;5056125;28;20138;-87
2023/06/10 09:49:13;;;;;;;;;;;25.90;70.60;;;;;;5038695;28;20037;-87
2023/06/10 09:51:53;;;;;;;5.05;3.67;;;26.00;70.50;;;;;;5054939;28;19911;-86
2023/06/10 09:54:19;;;;;;;5.22;4.15;;;26.00;70.60;;;;;;5055100;28;20017;-87
2023/06/10 09:56:48;;;;;;;4.65;3.75;;;26.00;70.60;;;;;;5054883;28;20043;-87
2023/06/10 09:59:29;;;;;;;4.53;3.83;;;26.10;70.50;;;;;;5054922;28;20390;-87
2023/06/10 10:01:55;;;;;;;4.28;3.70;;;26.20;70.00;;;;;;5055099;28;20027;-87
2023/06/10 10:04:25;;;;;;;5.53;3.78;;;26.20;69.70;;;;;;5056511;28;20052;-87
2023/06/10 10:06:51;;;;;;;5.63;3.60;;;26.20;69.50;;;;;;5037588;28;20079;-87
2023/06/10 10:09:16;;;;;;;5.45;4.20;;;26.30;69.60;;;;;;5054677;28;20033;-87
2023/06/10 10:11:44;;;;;;;3.80;3.33;;;26.40;69.40;;;;;;5038181;28;20057;-87
2023/06/10 10:14:13;;;;;;;4.45;3.50;;;26.50;69.60;;;;;;5054502;28;20386;-87
2023/06/10 10:16:42;;;;;;;4.75;3.78;;;26.50;69.30;;;;;;5056234;28;20017;-86
2023/06/10 10:19:12;;;;;;;3.70;3.33;;;26.50;69.20;;;;;;5055280;28;20028;-87
2023/06/10 10:21:50;;;;;;;5.17;3.60;;;26.60;68.80;;;;;;5054281;28;20086;-87
2023/06/10 10:24:20;;;;;;;6.15;3.50;;;26.70;68.40;;;;;;5054860;28;20263;-87
2023/06/10 10:26:48;;;;;;;4.93;3.95;;;26.80;68.00;;;;;;5054278;28;20025;-87
2023/06/10 10:29:33;;;;;;;3.95;3.38;;;26.90;67.70;;;;;;5054163;28;20064;-87
2023/06/10 10:32:00;;;;;;;4.38;3.72;;;26.90;67.80;;;;;;5053555;28;20507;-87
2023/06/10 10:34:59;;;;;;;4.20;3.80;;;26.90;67.20;;;;;;5054917;28;20124;-86
2023/06/10 10:37:29;;;;;;;3.88;3.30;;;27.00;66.90;;;;;;5054679;28;20021;-87
2023/06/10 10:39:55;;;;;;;5.22;3.35;;;27.00;66.80;;;;;;5037837;28;20052;-88
2023/06/10 10:42:22;;;;;;;5.07;3.88;;;27.00;66.10;;;;;;5054299;28;20029;-91
2023/06/10 10:44:50;;;;;;;4.13;3.60;;;27.10;66.00;;;;;;5055070;28;20021;-87
2023/06/10 10:47:18;;;;;;;3.85;3.22;;;27.20;65.90;;;;;;5056679;28;20054;-88
2023/06/10 10:49:45;;;;;;;4.57;3.72;;;27.20;65.60;;;;;;5063561;28;20401;-88
2023/06/10 10:52:14;;;;;;;6.18;3.63;;;27.20;64.80;;;;;;5067756;28;20024;-87
2023/06/10 10:54:45;;;;;;;5.13;3.53;;;27.30;64.40;;;;;;5053975;28;20546;-88
2023/06/10 10:57:19;;;;;;;4.25;3.53;;;27.30;64.80;;;;;;5067462;28;20048;-87
2023/06/10 11:00:04;;;;;;;4.40;3.20;;;27.30;64.50;;;;;;5069228;28;20031;-86
2023/06/10 11:02:46;;;;;;;4.03;3.22;;;27.40;64.70;;;;;;5085825;28;20035;-85
2023/06/10 11:05:15;;;;;;;5.15;3.22;;;27.50;65.30;;;;;;5090197;28;20009;-87
2023/06/10 11:07:53;;;;;;;3.42;2.90;;;27.50;64.60;;;;;;5091503;28;20005;-86
2023/06/10 11:10:30;;;;;;;5.20;3.20;;;27.60;64.50;;;;;;5094061;28;20024;-85
2023/06/10 11:12:57;;;;;;;3.65;3.28;;;27.70;63.80;;;;;;5088574;28;20029;-86
2023/06/10 11:15:25;;;;;;;3.65;3.22;;;27.80;62.40;;;;;;5063075;28;20050;-87
2023/06/10 11:18:25;;;;;;;4.50;3.15;;;27.80;62.40;;;;;;5056943;28;20548;-87
2023/06/10 11:20:58;;;;;;;3.85;3.10;;;27.80;62.40;;;;;;5071752;28;20034;-88
2023/06/10 11:23:32;;;;;;;5.68;2.90;;;27.90;61.50;;;;;;5076065;28;20541;-88
2023/06/10 11:26:26;;;;;;;3.75;3.10;;;28.00;61.60;;;;;;5059859;28;20025;-87
2023/06/10 11:28:55;;;;;;;3.60;3.10;;;28.00;61.50;;;;;;5069364;28;20017;-87
2023/06/10 11:31:28;;;;;;;3.78;3.28;;;28.00;61.50;;;;;;5062997;28;20060;-87
2023/06/10 11:33:57;;;;;;;3.88;3.30;;;28.10;61.20;;;;;;5053645;28;20102;-87
2023/06/10 11:36:24;;;;;;;4.33;3.43;;;28.10;60.10;;;;;;5053165;28;20025;-86
2023/06/10 11:38:55;;;;;;;4.63;3.30;;;28.10;59.60;;;;;;5052582;28;20033;-86
2023/06/10 11:41:21;;;;;;;4.32;3.33;;;28.10;59.60;;;;;;5052874;28;20021;-87
2023/06/10 11:43:47;;;;;;;3.72;2.90;;;28.20;59.80;;;;;;5052948;28;20497;-87
2023/06/10 11:46:14;;;;;;;4.43;3.78;;;28.30;60.00;;;;;;5046640;28;20477;-87
2023/06/10 11:48:49;;;;;;;4.53;3.63;;;28.30;59.50;;;;;;5072671;28;20024;-86
2023/06/10 11:51:14;;;;;;;5.80;3.95;;;28.40;58.70;;;;;;5072724;28;20021;-87
2023/06/10 11:53:40;;;;;;;3.92;3.58;;;28.40;58.50;;;;;;5066311;28;20027;-86
2023/06/10 11:56:06;;;;;;;5.85;3.95;;;28.40;58.70;;;;;;5035987;28;20028;-86
2023/06/10 11:58:32;;;;;;;4.28;3.80;;;28.50;57.60;;;;;;5019518;28;20041;-86
2023/06/10 12:00:58;;;;;;;5.28;3.40;;;28.40;57.50;;;;;;5035637;28;20040;-86
2023/06/10 12:03:25;;;;;;;3.85;3.20;;;28.50;57.80;;;;;;5055973;28;20108;-86
2023/06/10 12:06:05;;;;;;;4.28;3.25;;;28.50;57.90;;;;;;5072396;28;20427;-86
2023/06/10 12:08:32;;;;;;;4.32;3.30;;;28.50;57.90;;;;;;5073281;28;20021;-87
2023/06/10 12:10:58;;;;;;;5.13;3.53;;;28.50;57.70;;;;;;5073241;28;20020;-87
2023/06/10 12:13:28;;;;;;;5.55;3.78;;;28.60;57.60;;;;;;5072211;28;20028;-87
2023/06/10 12:15:54;;;;;;;5.72;3.63;;;28.60;57.80;;;;;;5073818;28;20028;-85
2023/06/10 12:18:22;;;;;;;3.75;3.35;;;28.60;58.10;;;;;;5054899;28;20077;-86
2023/06/10 12:20:48;;;;;;;3.40;3.10;;;28.70;58.30;;;;;;5068783;28;20036;-86
2023/06/10 12:23:15;;;;;;;4.60;3.38;;;28.70;58.60;;;;;;5070483;28;20532;-89
2023/06/10 12:25:54;;;;;;;4.72;3.45;;;28.70;58.30;;;;;;5055319;28;20025;-86
2023/06/10 12:28:23;;;;;;;5.25;3.80;;;28.80;57.60;;;;;;5053349;28;20035;-88
2023/06/10 12:31:09;;;;;;;5.05;3.90;;;28.80;56.90;;;;;;5070738;28;20040;-87
2023/06/10 12:33:35;;;;;;;4.57;3.78;;;28.80;56.90;;;;;;5072418;28;20037;-87
2023/06/10 12:36:01;;;;;;;4.82;3.63;;;28.80;57.00;;;;;;5054862;28;20025;-86
2023/06/10 12:38:27;;;;;;;3.35;3.05;;;28.90;57.40;;;;;;5072534;28;20025;-86
2023/06/10 12:40:53;;;;;;;4.03;3.22;;;28.90;57.30;;;;;;5055927;28;20449;-86
2023/06/10 12:43:25;;;;;;;3.63;3.30;;;28.90;57.20;;;;;;5072037;28;20040;-87
2023/06/10 12:45:51;;;;;;;3.95;3.60;;;28.90;57.20;;;;;;5071163;28;20473;-86
2023/06/10 12:48:20;;;;;;;5.47;3.50;;;29.00;57.10;;;;;;5058799;28;20055;-86
2023/06/10 12:50:57;;;;;;;7.00;3.50;;;29.00;56.90;;;;;;5063429;28;20036;-92